sensor_id;sensor_type;location;lat;lon;timestamp;P1;durP1;ratioP1;P2;durP2;ratioP2
29218;SDS011;16421;50.202;7.852;2022-11-12T00:02:37;4.13;;;2.85;;
29218;SDS011;16421;50.202;7.852;2022-11-12T00:08:00;3.92;;;2.65;;
29218;SDS011;16421;50.202;7.852;2022-11-12T00:13:23;3.88;;;2.53;;
29218;SDS011;16421;50.202;7.852;2022-11-12T00:18:45;4.28;;;2.53;;
29218;SDS011;16421;50.202;7.852;2022-11-12T00:24:08;8.88;;;2.35;;
29218;SDS011;16421;50.202;7.852;2022-11-12T00:29:31;5.47;;;2.42;;
29218;SDS011;16421;50.202;7.852;2022-11-12T00:34:54;5.30;;;2.90;;
29218;SDS011;16421;50.202;7.852;2022-11-12T00:40:17;2.97;;;2.08;;
29218;SDS011;16421;50.202;7.852;2022-11-12T00:45:40;3.38;;;1.90;;
29218;SDS011;16421;50.202;7.852;2022-11-12T00:51:03;3.15;;;2.22;;
29218;SDS011;16421;50.202;7.852;2022-11-12T00:56:26;4.40;;;2.45;;
29218;SDS011;16421;50.202;7.852;2022-11-12T01:01:53;5.38;;;2.85;;
29218;SDS011;16421;50.202;7.852;2022-11-12T01:07:15;3.95;;;3.00;;
29218;SDS011;16421;50.202;7.852;2022-11-12T01:12:37;3.38;;;2.25;;
29218;SDS011;16421;50.202;7.852;2022-11-12T01:18:01;5.95;;;2.45;;
29218;SDS011;16421;50.202;7.852;2022-11-12T01:23:23;3.17;;;2.35;;
29218;SDS011;16421;50.202;7.852;2022-11-12T01:28:45;3.58;;;2.33;;
29218;SDS011;16421;50.202;7.852;2022-11-12T01:34:09;3.15;;;2.20;;
29218;SDS011;16421;50.202;7.852;2022-11-12T01:39:31;2.65;;;2.08;;
29218;SDS011;16421;50.202;7.852;2022-11-12T01:44:54;3.40;;;2.17;;
29218;SDS011;16421;50.202;7.852;2022-11-12T01:50:19;3.03;;;2.17;;
29218;SDS011;16421;50.202;7.852;2022-11-12T01:55:44;4.70;;;2.55;;
29218;SDS011;16421;50.202;7.852;2022-11-12T02:01:07;4.32;;;2.55;;
29218;SDS011;16421;50.202;7.852;2022-11-12T02:06:31;4.13;;;3.08;;
29218;SDS011;16421;50.202;7.852;2022-11-12T02:11:54;4.68;;;2.95;;
29218;SDS011;16421;50.202;7.852;2022-11-12T02:17:16;3.00;;;2.47;;
29218;SDS011;16421;50.202;7.852;2022-11-12T02:22:40;2.60;;;2.25;;
29218;SDS011;16421;50.202;7.852;2022-11-12T02:28:03;4.45;;;3.13;;
29218;SDS011;16421;50.202;7.852;2022-11-12T02:33:27;3.17;;;2.38;;
29218;SDS011;16421;50.202;7.852;2022-11-12T02:38:50;3.63;;;2.22;;
29218;SDS011;16421;50.202;7.852;2022-11-12T02:44:13;5.90;;;2.30;;
29218;SDS011;16421;50.202;7.852;2022-11-12T02:49:35;3.20;;;1.90;;
29218;SDS011;16421;50.202;7.852;2022-11-12T02:54:59;4.78;;;2.33;;
29218;SDS011;16421;50.202;7.852;2022-11-12T03:00:21;4.60;;;2.55;;
29218;SDS011;16421;50.202;7.852;2022-11-12T03:05:43;4.75;;;2.35;;
29218;SDS011;16421;50.202;7.852;2022-11-12T03:11:15;4.50;;;2.80;;
29218;SDS011;16421;50.202;7.852;2022-11-12T03:16:37;4.00;;;2.35;;
29218;SDS011;16421;50.202;7.852;2022-11-12T03:22:00;3.35;;;2.28;;
29218;SDS011;16421;50.202;7.852;2022-11-12T03:27:23;3.30;;;2.40;;
29218;SDS011;16421;50.202;7.852;2022-11-12T03:32:45;3.90;;;2.83;;
29218;SDS011;16421;50.202;7.852;2022-11-12T03:38:07;3.70;;;2.35;;
29218;SDS011;16421;50.202;7.852;2022-11-12T03:43:31;8.40;;;2.88;;
29218;SDS011;16421;50.202;7.852;2022-11-12T03:48:53;4.80;;;2.08;;
29218;SDS011;16421;50.202;7.852;2022-11-12T03:54:15;3.10;;;2.15;;
29218;SDS011;16421;50.202;7.852;2022-11-12T03:59:38;2.53;;;2.08;;
29218;SDS011;16421;50.202;7.852;2022-11-12T04:05:01;3.08;;;2.10;;
29218;SDS011;16421;50.202;7.852;2022-11-12T04:10:40;3.22;;;2.20;;
29218;SDS011;16421;50.202;7.852;2022-11-12T04:16:05;3.92;;;2.33;;
29218;SDS011;16421;50.202;7.852;2022-11-12T04:21:47;3.30;;;1.88;;
29218;SDS011;16421;50.202;7.852;2022-11-12T04:27:17;4.07;;;2.15;;
29218;SDS011;16421;50.202;7.852;2022-11-12T04:32:46;1.98;;;1.65;;
29218;SDS011;16421;50.202;7.852;2022-11-12T04:38:09;2.95;;;2.33;;
29218;SDS011;16421;50.202;7.852;2022-11-12T04:43:32;3.25;;;2.03;;
29218;SDS011;16421;50.202;7.852;2022-11-12T04:49:13;2.00;;;1.60;;
29218;SDS011;16421;50.202;7.852;2022-11-12T04:54:35;1.50;;;1.30;;
29218;SDS011;16421;50.202;7.852;2022-11-12T05:00:00;1.52;;;1.42;;
29218;SDS011;16421;50.202;7.852;2022-11-12T05:05:32;1.60;;;1.13;;
29218;SDS011;16421;50.202;7.852;2022-11-12T05:10:55;1.15;;;1.05;;
29218;SDS011;16421;50.202;7.852;2022-11-12T05:16:17;1.40;;;1.15;;
29218;SDS011;16421;50.202;7.852;2022-11-12T05:21:41;1.33;;;1.13;;
29218;SDS011;16421;50.202;7.852;2022-11-12T05:27:21;1.20;;;1.10;;
29218;SDS011;16421;50.202;7.852;2022-11-12T05:32:43;1.50;;;1.35;;
29218;SDS011;16421;50.202;7.852;2022-11-12T05:38:06;1.20;;;1.10;;
29218;SDS011;16421;50.202;7.852;2022-11-12T05:43:29;1.50;;;1.05;;
29218;SDS011;16421;50.202;7.852;2022-11-12T05:48:51;1.10;;;1.00;;
29218;SDS011;16421;50.202;7.852;2022-11-12T05:54:15;1.60;;;1.30;;
29218;SDS011;16421;50.202;7.852;2022-11-12T05:59:38;2.72;;;1.00;;
29218;SDS011;16421;50.202;7.852;2022-11-12T06:05:03;2.15;;;0.80;;
29218;SDS011;16421;50.202;7.852;2022-11-12T06:10:27;1.80;;;1.40;;
29218;SDS011;16421;50.202;7.852;2022-11-12T06:15:49;3.20;;;0.88;;
29218;SDS011;16421;50.202;7.852;2022-11-12T06:21:11;0.90;;;0.90;;
29218;SDS011;16421;50.202;7.852;2022-11-12T06:26:43;1.98;;;1.50;;
29218;SDS011;16421;50.202;7.852;2022-11-12T06:32:05;1.45;;;1.10;;
29218;SDS011;16421;50.202;7.852;2022-11-12T06:37:27;0.90;;;0.90;;
29218;SDS011;16421;50.202;7.852;2022-11-12T06:42:56;6.18;;;0.75;;
29218;SDS011;16421;50.202;7.852;2022-11-12T06:48:18;2.25;;;0.90;;
29218;SDS011;16421;50.202;7.852;2022-11-12T06:53:40;0.77;;;0.77;;
29218;SDS011;16421;50.202;7.852;2022-11-12T06:59:03;0.88;;;0.85;;
29218;SDS011;16421;50.202;7.852;2022-11-12T07:04:25;3.63;;;0.70;;
29218;SDS011;16421;50.202;7.852;2022-11-12T07:09:48;1.10;;;0.80;;
29218;SDS011;16421;50.202;7.852;2022-11-12T07:15:11;4.15;;;1.10;;
29218;SDS011;16421;50.202;7.852;2022-11-12T07:20:33;1.00;;;0.90;;
29218;SDS011;16421;50.202;7.852;2022-11-12T07:25:58;0.98;;;0.88;;
29218;SDS011;16421;50.202;7.852;2022-11-12T07:31:26;1.02;;;0.90;;
29218;SDS011;16421;50.202;7.852;2022-11-12T07:36:48;1.35;;;1.00;;
29218;SDS011;16421;50.202;7.852;2022-11-12T07:42:11;0.85;;;0.82;;
29218;SDS011;16421;50.202;7.852;2022-11-12T07:47:34;0.88;;;0.85;;
29218;SDS011;16421;50.202;7.852;2022-11-12T07:52:57;1.27;;;1.13;;
29218;SDS011;16421;50.202;7.852;2022-11-12T07:58:19;1.30;;;1.20;;
29218;SDS011;16421;50.202;7.852;2022-11-12T08:03:42;1.20;;;1.10;;
29218;SDS011;16421;50.202;7.852;2022-11-12T08:09:05;1.60;;;1.50;;
29218;SDS011;16421;50.202;7.852;2022-11-12T08:14:29;1.17;;;0.98;;
29218;SDS011;16421;50.202;7.852;2022-11-12T08:19:52;1.23;;;1.13;;
29218;SDS011;16421;50.202;7.852;2022-11-12T08:25:15;1.52;;;1.23;;
29218;SDS011;16421;50.202;7.852;2022-11-12T08:30:38;1.50;;;1.38;;
29218;SDS011;16421;50.202;7.852;2022-11-12T08:36:02;1.17;;;1.08;;
29218;SDS011;16421;50.202;7.852;2022-11-12T08:41:25;1.35;;;1.20;;
29218;SDS011;16421;50.202;7.852;2022-11-12T08:46:47;1.38;;;1.27;;
29218;SDS011;16421;50.202;7.852;2022-11-12T08:52:12;1.40;;;1.13;;
29218;SDS011;16421;50.202;7.852;2022-11-12T08:57:37;1.35;;;1.08;;
29218;SDS011;16421;50.202;7.852;2022-11-12T09:08:24;1.60;;;1.02;;
29218;SDS011;16421;50.202;7.852;2022-11-12T09:13:47;2.05;;;1.40;;
29218;SDS011;16421;50.202;7.852;2022-11-12T09:22:02;1.08;;;1.00;;
29218;SDS011;16421;50.202;7.852;2022-11-12T09:27:25;2.75;;;1.27;;
29218;SDS011;16421;50.202;7.852;2022-11-12T09:32:47;3.25;;;1.50;;
29218;SDS011;16421;50.202;7.852;2022-11-12T09:38:10;2.22;;;1.75;;
29218;SDS011;16421;50.202;7.852;2022-11-12T09:43:34;2.00;;;1.40;;
29218;SDS011;16421;50.202;7.852;2022-11-12T09:54:26;1.88;;;1.60;;
29218;SDS011;16421;50.202;7.852;2022-11-12T09:59:50;3.63;;;2.13;;
29218;SDS011;16421;50.202;7.852;2022-11-12T10:05:23;2.72;;;1.90;;
29218;SDS011;16421;50.202;7.852;2022-11-12T10:10:52;2.83;;;2.28;;
29218;SDS011;16421;50.202;7.852;2022-11-12T10:16:23;3.88;;;2.80;;
29218;SDS011;16421;50.202;7.852;2022-11-12T10:22:06;4.65;;;2.80;;
29218;SDS011;16421;50.202;7.852;2022-11-12T10:27:40;2.65;;;2.35;;
29218;SDS011;16421;50.202;7.852;2022-11-12T10:33:02;2.05;;;1.85;;
29218;SDS011;16421;50.202;7.852;2022-11-12T10:38:25;3.05;;;2.50;;
29218;SDS011;16421;50.202;7.852;2022-11-12T10:43:53;3.15;;;2.55;;
29218;SDS011;16421;50.202;7.852;2022-11-12T10:49:23;2.92;;;1.92;;
29218;SDS011;16421;50.202;7.852;2022-11-12T10:54:45;2.53;;;1.88;;
29218;SDS011;16421;50.202;7.852;2022-11-12T11:00:16;3.03;;;2.50;;
29218;SDS011;16421;50.202;7.852;2022-11-12T11:05:47;1.90;;;1.77;;
29218;SDS011;16421;50.202;7.852;2022-11-12T11:11:19;2.70;;;2.05;;
29218;SDS011;16421;50.202;7.852;2022-11-12T11:16:48;1.80;;;1.50;;
29218;SDS011;16421;50.202;7.852;2022-11-12T11:22:22;2.10;;;1.85;;
29218;SDS011;16421;50.202;7.852;2022-11-12T11:27:54;1.95;;;1.75;;
29218;SDS011;16421;50.202;7.852;2022-11-12T11:33:26;1.75;;;1.55;;
29218;SDS011;16421;50.202;7.852;2022-11-12T11:38:58;1.55;;;1.45;;
29218;SDS011;16421;50.202;7.852;2022-11-12T11:44:26;1.30;;;1.20;;
29218;SDS011;16421;50.202;7.852;2022-11-12T11:50:03;1.30;;;1.20;;
29218;SDS011;16421;50.202;7.852;2022-11-12T11:55:47;1.58;;;1.48;;
29218;SDS011;16421;50.202;7.852;2022-11-12T12:01:17;2.67;;;2.20;;
29218;SDS011;16421;50.202;7.852;2022-11-12T12:06:46;2.10;;;1.90;;
29218;SDS011;16421;50.202;7.852;2022-11-12T12:12:20;1.98;;;1.77;;
29218;SDS011;16421;50.202;7.852;2022-11-12T12:17:52;2.63;;;2.33;;
29218;SDS011;16421;50.202;7.852;2022-11-12T12:23:25;2.20;;;2.00;;
29218;SDS011;16421;50.202;7.852;2022-11-12T12:28:52;3.08;;;2.28;;
29218;SDS011;16421;50.202;7.852;2022-11-12T12:34:19;1.65;;;1.42;;
29218;SDS011;16421;50.202;7.852;2022-11-12T12:39:47;2.08;;;1.60;;
29218;SDS011;16421;50.202;7.852;2022-11-12T12:50:57;1.65;;;1.45;;
29218;SDS011;16421;50.202;7.852;2022-11-12T13:02:17;2.55;;;1.88;;
29218;SDS011;16421;50.202;7.852;2022-11-12T13:07:42;1.20;;;1.10;;
29218;SDS011;16421;50.202;7.852;2022-11-12T13:13:21;1.58;;;1.30;;
29218;SDS011;16421;50.202;7.852;2022-11-12T13:18:57;2.00;;;1.48;;
29218;SDS011;16421;50.202;7.852;2022-11-12T13:24:28;1.63;;;1.42;;
29218;SDS011;16421;50.202;7.852;2022-11-12T13:36:26;1.85;;;1.52;;
29218;SDS011;16421;50.202;7.852;2022-11-12T13:41:54;1.92;;;1.77;;
29218;SDS011;16421;50.202;7.852;2022-11-12T13:47:36;2.27;;;1.80;;
29218;SDS011;16421;50.202;7.852;2022-11-12T13:52:59;1.77;;;1.35;;
29218;SDS011;16421;50.202;7.852;2022-11-12T13:58:25;3.22;;;2.28;;
29218;SDS011;16421;50.202;7.852;2022-11-12T14:03:50;3.28;;;2.42;;
29218;SDS011;16421;50.202;7.852;2022-11-12T14:09:19;2.63;;;1.95;;
29218;SDS011;16421;50.202;7.852;2022-11-12T14:15:00;3.27;;;2.37;;
29218;SDS011;16421;50.202;7.852;2022-11-12T14:20:33;2.40;;;2.13;;
29218;SDS011;16421;50.202;7.852;2022-11-12T14:25:56;2.30;;;2.03;;
29218;SDS011;16421;50.202;7.852;2022-11-12T14:31:19;1.90;;;1.70;;
29218;SDS011;16421;50.202;7.852;2022-11-12T14:36:46;1.77;;;1.65;;
29218;SDS011;16421;50.202;7.852;2022-11-12T14:42:11;2.42;;;1.40;;
29218;SDS011;16421;50.202;7.852;2022-11-12T14:47:34;1.48;;;1.30;;
29218;SDS011;16421;50.202;7.852;2022-11-12T14:52:59;1.75;;;1.52;;
29218;SDS011;16421;50.202;7.852;2022-11-12T14:58:26;3.08;;;2.50;;
29218;SDS011;16421;50.202;7.852;2022-11-12T15:03:48;3.13;;;2.53;;
29218;SDS011;16421;50.202;7.852;2022-11-12T15:09:14;3.00;;;2.17;;
29218;SDS011;16421;50.202;7.852;2022-11-12T15:14:40;2.67;;;1.77;;
29218;SDS011;16421;50.202;7.852;2022-11-12T15:20:03;4.82;;;3.10;;
29218;SDS011;16421;50.202;7.852;2022-11-12T15:25:28;2.58;;;2.38;;
29218;SDS011;16421;50.202;7.852;2022-11-12T15:31:00;2.65;;;2.03;;
29218;SDS011;16421;50.202;7.852;2022-11-12T15:36:25;2.28;;;1.70;;
29218;SDS011;16421;50.202;7.852;2022-11-12T15:41:49;9.52;;;4.25;;
29218;SDS011;16421;50.202;7.852;2022-11-12T15:47:17;10.73;;;2.72;;
29218;SDS011;16421;50.202;7.852;2022-11-12T15:52:41;3.55;;;2.40;;
29218;SDS011;16421;50.202;7.852;2022-11-12T15:58:05;8.15;;;3.58;;
29218;SDS011;16421;50.202;7.852;2022-11-12T16:03:33;5.65;;;3.25;;
29218;SDS011;16421;50.202;7.852;2022-11-12T16:08:55;4.18;;;2.83;;
29218;SDS011;16421;50.202;7.852;2022-11-12T16:14:19;2.13;;;1.90;;
29218;SDS011;16421;50.202;7.852;2022-11-12T16:19:43;3.20;;;2.30;;
29218;SDS011;16421;50.202;7.852;2022-11-12T16:25:06;3.50;;;2.60;;
29218;SDS011;16421;50.202;7.852;2022-11-12T16:30:31;4.35;;;3.20;;
29218;SDS011;16421;50.202;7.852;2022-11-12T16:35:54;4.20;;;2.93;;
29218;SDS011;16421;50.202;7.852;2022-11-12T16:41:16;3.42;;;1.85;;
29218;SDS011;16421;50.202;7.852;2022-11-12T16:46:39;1.75;;;1.45;;
29218;SDS011;16421;50.202;7.852;2022-11-12T16:52:02;4.03;;;2.00;;
29218;SDS011;16421;50.202;7.852;2022-11-12T16:57:24;2.63;;;1.60;;
29218;SDS011;16421;50.202;7.852;2022-11-12T17:02:48;3.53;;;1.92;;
29218;SDS011;16421;50.202;7.852;2022-11-12T17:08:12;2.42;;;2.05;;
29218;SDS011;16421;50.202;7.852;2022-11-12T17:13:35;2.80;;;2.08;;
29218;SDS011;16421;50.202;7.852;2022-11-12T17:18:59;2.42;;;2.22;;
29218;SDS011;16421;50.202;7.852;2022-11-12T17:24:24;4.18;;;2.08;;
29218;SDS011;16421;50.202;7.852;2022-11-12T17:29:46;8.02;;;4.10;;
29218;SDS011;16421;50.202;7.852;2022-11-12T17:35:09;9.68;;;2.60;;
29218;SDS011;16421;50.202;7.852;2022-11-12T17:40:31;3.00;;;2.28;;
29218;SDS011;16421;50.202;7.852;2022-11-12T17:45:54;3.50;;;2.00;;
29218;SDS011;16421;50.202;7.852;2022-11-12T17:51:19;2.10;;;1.80;;
29218;SDS011;16421;50.202;7.852;2022-11-12T17:56:42;2.63;;;1.73;;
29218;SDS011;16421;50.202;7.852;2022-11-12T18:02:05;2.72;;;2.33;;
29218;SDS011;16421;50.202;7.852;2022-11-12T18:07:31;3.42;;;2.55;;
29218;SDS011;16421;50.202;7.852;2022-11-12T18:12:54;4.10;;;3.17;;
29218;SDS011;16421;50.202;7.852;2022-11-12T18:18:23;3.70;;;2.58;;
29218;SDS011;16421;50.202;7.852;2022-11-12T18:23:46;2.42;;;2.13;;
29218;SDS011;16421;50.202;7.852;2022-11-12T18:29:08;3.50;;;2.35;;
29218;SDS011;16421;50.202;7.852;2022-11-12T18:34:31;2.50;;;2.25;;
29218;SDS011;16421;50.202;7.852;2022-11-12T18:39:55;2.90;;;2.30;;
29218;SDS011;16421;50.202;7.852;2022-11-12T18:45:17;2.50;;;1.90;;
29218;SDS011;16421;50.202;7.852;2022-11-12T18:50:39;3.42;;;2.08;;
29218;SDS011;16421;50.202;7.852;2022-11-12T18:56:03;3.33;;;2.60;;
29218;SDS011;16421;50.202;7.852;2022-11-12T19:01:26;2.57;;;2.17;;
29218;SDS011;16421;50.202;7.852;2022-11-12T19:06:48;2.90;;;2.05;;
29218;SDS011;16421;50.202;7.852;2022-11-12T19:12:12;2.15;;;1.48;;
29218;SDS011;16421;50.202;7.852;2022-11-12T19:17:34;2.00;;;1.48;;
29218;SDS011;16421;50.202;7.852;2022-11-12T19:22:56;1.73;;;1.63;;
29218;SDS011;16421;50.202;7.852;2022-11-12T19:28:20;1.63;;;1.42;;
29218;SDS011;16421;50.202;7.852;2022-11-12T19:33:42;2.90;;;2.05;;
29218;SDS011;16421;50.202;7.852;2022-11-12T19:39:05;4.35;;;2.03;;
29218;SDS011;16421;50.202;7.852;2022-11-12T19:44:28;1.52;;;1.42;;
29218;SDS011;16421;50.202;7.852;2022-11-12T19:49:50;1.50;;;1.30;;
29218;SDS011;16421;50.202;7.852;2022-11-12T19:55:13;1.40;;;1.30;;
29218;SDS011;16421;50.202;7.852;2022-11-12T20:00:36;1.75;;;1.52;;
29218;SDS011;16421;50.202;7.852;2022-11-12T20:05:59;2.35;;;1.50;;
29218;SDS011;16421;50.202;7.852;2022-11-12T20:11:21;2.58;;;1.60;;
29218;SDS011;16421;50.202;7.852;2022-11-12T20:16:45;4.40;;;1.55;;
29218;SDS011;16421;50.202;7.852;2022-11-12T20:22:08;3.60;;;2.33;;
29218;SDS011;16421;50.202;7.852;2022-11-12T20:27:30;2.40;;;2.00;;
29218;SDS011;16421;50.202;7.852;2022-11-12T20:32:54;2.35;;;1.27;;
29218;SDS011;16421;50.202;7.852;2022-11-12T20:38:16;3.05;;;1.25;;
29218;SDS011;16421;50.202;7.852;2022-11-12T20:43:38;2.20;;;1.42;;
29218;SDS011;16421;50.202;7.852;2022-11-12T20:49:02;3.28;;;1.38;;
29218;SDS011;16421;50.202;7.852;2022-11-12T20:54:27;1.30;;;1.20;;
29218;SDS011;16421;50.202;7.852;2022-11-12T20:59:49;1.48;;;1.38;;
29218;SDS011;16421;50.202;7.852;2022-11-12T21:05:13;1.35;;;1.25;;
29218;SDS011;16421;50.202;7.852;2022-11-12T21:10:36;4.60;;;2.10;;
29218;SDS011;16421;50.202;7.852;2022-11-12T21:15:58;1.98;;;1.70;;
29218;SDS011;16421;50.202;7.852;2022-11-12T21:21:25;2.00;;;1.67;;
29218;SDS011;16421;50.202;7.852;2022-11-12T21:26:50;6.80;;;2.08;;
29218;SDS011;16421;50.202;7.852;2022-11-12T21:32:12;2.20;;;1.77;;
29218;SDS011;16421;50.202;7.852;2022-11-12T21:37:36;2.67;;;1.85;;
29218;SDS011;16421;50.202;7.852;2022-11-12T21:42:59;2.30;;;1.73;;
29218;SDS011;16421;50.202;7.852;2022-11-12T21:48:21;3.63;;;2.58;;
29218;SDS011;16421;50.202;7.852;2022-11-12T21:53:44;2.92;;;1.80;;
29218;SDS011;16421;50.202;7.852;2022-11-12T21:59:07;1.80;;;1.58;;
29218;SDS011;16421;50.202;7.852;2022-11-12T22:04:29;2.10;;;1.55;;
29218;SDS011;16421;50.202;7.852;2022-11-12T22:09:52;2.08;;;1.70;;
29218;SDS011;16421;50.202;7.852;2022-11-12T22:15:15;7.45;;;1.63;;
29218;SDS011;16421;50.202;7.852;2022-11-12T22:20:43;2.80;;;2.08;;
29218;SDS011;16421;50.202;7.852;2022-11-12T22:26:20;3.58;;;1.40;;
29218;SDS011;16421;50.202;7.852;2022-11-12T22:31:44;2.05;;;1.85;;
29218;SDS011;16421;50.202;7.852;2022-11-12T22:37:09;2.60;;;2.00;;
29218;SDS011;16421;50.202;7.852;2022-11-12T22:42:33;6.25;;;2.42;;
29218;SDS011;16421;50.202;7.852;2022-11-12T22:47:57;3.42;;;2.13;;
29218;SDS011;16421;50.202;7.852;2022-11-12T22:53:19;4.00;;;2.40;;
29218;SDS011;16421;50.202;7.852;2022-11-12T22:58:43;2.60;;;2.15;;
29218;SDS011;16421;50.202;7.852;2022-11-12T23:04:06;5.55;;;1.95;;
29218;SDS011;16421;50.202;7.852;2022-11-12T23:09:28;2.40;;;1.85;;
29218;SDS011;16421;50.202;7.852;2022-11-12T23:14:52;3.00;;;2.35;;
29218;SDS011;16421;50.202;7.852;2022-11-12T23:20:14;2.72;;;1.90;;
29218;SDS011;16421;50.202;7.852;2022-11-12T23:25:36;2.75;;;2.03;;
29218;SDS011;16421;50.202;7.852;2022-11-12T23:31:00;6.65;;;2.47;;
29218;SDS011;16421;50.202;7.852;2022-11-12T23:36:22;2.60;;;2.03;;
29218;SDS011;16421;50.202;7.852;2022-11-12T23:41:45;1.95;;;1.83;;
29218;SDS011;16421;50.202;7.852;2022-11-12T23:47:09;2.50;;;1.92;;
29218;SDS011;16421;50.202;7.852;2022-11-12T23:52:31;3.72;;;2.13;;
29218;SDS011;16421;50.202;7.852;2022-11-12T23:57:53;2.97;;;2.00;;
